createdAt,value
2018-03-01T00:01:16.875Z,16.37
2018-03-01T00:03:44.390Z,15.43
2018-03-01T00:06:11.917Z,15.90
2018-03-01T00:08:39.433Z,16.58
2018-03-01T00:11:06.944Z,17.10
2018-03-01T00:13:34.479Z,16.17
2018-03-01T00:16:02.029Z,16.73
2018-03-01T00:18:29.651Z,16.40
2018-03-01T00:20:57.620Z,16.23
2018-03-01T00:23:25.232Z,14.77
2018-03-01T00:25:52.738Z,15.85
2018-03-01T00:28:20.232Z,16.40
2018-03-01T00:30:47.834Z,15.60
2018-03-01T00:33:15.467Z,15.82
2018-03-01T00:35:42.994Z,14.32
2018-03-01T00:38:10.584Z,15.27
2018-03-01T00:40:38.111Z,16.00
2018-03-01T00:43:06.092Z,15.82
2018-03-01T00:45:33.668Z,16.05
2018-03-01T00:48:01.199Z,15.70
2018-03-01T00:50:28.725Z,16.23
2018-03-01T00:52:56.255Z,14.80
2018-03-01T00:55:23.970Z,15.85
2018-03-01T00:57:51.463Z,16.27
2018-03-01T01:00:18.968Z,17.48
2018-03-01T01:02:46.474Z,16.52
2018-03-01T01:05:13.986Z,15.10
2018-03-01T01:07:41.513Z,14.95
2018-03-01T01:10:09.031Z,15.27
2018-03-01T01:12:36.570Z,17.15
2018-03-01T01:15:04.077Z,17.58
2018-03-01T01:17:31.615Z,17.17
2018-03-01T01:19:59.264Z,16.58
2018-03-01T01:22:26.804Z,15.20
2018-03-01T01:24:54.304Z,15.45
2018-03-01T01:27:21.818Z,15.73
2018-03-01T01:29:49.368Z,15.30
2018-03-01T01:32:16.938Z,16.87
2018-03-01T01:34:44.477Z,17.73
2018-03-01T01:37:11.987Z,14.80
2018-03-01T01:39:39.512Z,16.58
2018-03-01T01:42:07.001Z,16.40
2018-03-01T01:44:34.532Z,16.62
2018-03-01T01:47:02.030Z,17.08
2018-03-01T01:49:29.614Z,15.90
2018-03-01T01:51:57.173Z,15.57
2018-03-01T01:54:25.365Z,16.27
2018-03-01T01:56:52.867Z,15.18
2018-03-01T01:59:20.351Z,15.27
2018-03-01T02:01:47.874Z,15.75
2018-03-01T02:04:15.404Z,15.68
2018-03-01T02:06:43.016Z,17.20
2018-03-01T02:09:10.656Z,15.75
2018-03-01T02:11:39.673Z,16.45
2018-03-01T02:14:07.568Z,16.02
2018-03-01T02:16:35.132Z,15.77
2018-03-01T02:19:02.665Z,16.17
2018-03-01T02:21:30.197Z,14.40
2018-03-01T02:23:57.931Z,16.08
2018-03-01T02:26:25.454Z,16.30
2018-03-01T02:28:53.903Z,15.68
2018-03-01T02:31:21.508Z,15.82
2018-03-01T02:33:49.140Z,14.73
2018-03-01T02:39:16.719Z,15.48
2018-03-01T02:41:44.274Z,15.35
2018-03-01T02:44:11.797Z,14.48
2018-03-01T02:46:39.344Z,14.95
2018-03-01T02:49:06.878Z,16.45
2018-03-01T02:51:34.462Z,15.95
2018-03-01T02:54:02.007Z,15.90
2018-03-01T02:56:29.540Z,14.60
2018-03-01T02:58:57.144Z,15.55
2018-03-01T03:01:24.645Z,16.10
2018-03-01T03:03:53.046Z,17.10
2018-03-01T03:06:20.543Z,17.33
2018-03-01T03:08:48.079Z,15.45
2018-03-01T03:11:16.105Z,17.02
2018-03-01T03:13:43.630Z,16.20
2018-03-01T03:16:11.145Z,16.90
2018-03-01T03:18:38.667Z,17.50
2018-03-01T03:21:06.247Z,14.87
2018-03-01T03:23:33.801Z,15.60
2018-03-01T03:26:01.315Z,15.57
2018-03-01T03:28:28.837Z,16.75
2018-03-01T03:30:56.351Z,14.90
2018-03-01T03:33:23.898Z,15.75
2018-03-01T03:35:51.379Z,15.43
2018-03-01T03:38:18.945Z,15.60
2018-03-01T03:40:46.476Z,15.25
2018-03-01T03:43:13.993Z,16.23
2018-03-01T03:45:41.541Z,17.30
2018-03-01T03:48:09.118Z,17.00
2018-03-01T03:50:36.624Z,17.02
2018-03-01T03:53:04.164Z,16.48
2018-03-01T03:55:31.737Z,17.33
2018-03-01T03:57:59.296Z,17.40
2018-03-01T04:00:27.293Z,15.80
2018-03-01T04:02:54.811Z,15.88
2018-03-01T04:05:22.332Z,15.30
2018-03-01T04:07:49.926Z,16.73
2018-03-01T04:10:17.466Z,15.85
2018-03-01T04:12:45.017Z,16.23
2018-03-01T04:15:12.563Z,15.32
2018-03-01T04:17:41.014Z,16.30
2018-03-01T04:20:09.029Z,15.85
2018-03-01T04:22:36.560Z,14.70
2018-03-01T04:25:04.112Z,17.02
2018-03-01T04:27:32.042Z,15.93
2018-03-01T04:30:00.004Z,16.83
2018-03-01T04:32:28.131Z,17.85
2018-03-01T04:34:55.639Z,18.27
2018-03-01T04:37:23.195Z,15.32
2018-03-01T04:39:50.713Z,16.25
2018-03-01T04:42:18.214Z,16.83
2018-03-01T04:44:45.739Z,16.60
2018-03-01T04:47:13.250Z,15.45
2018-03-01T04:49:40.849Z,15.32
2018-03-01T04:52:08.364Z,15.70
2018-03-01T04:54:36.346Z,17.05
2018-03-01T04:57:03.848Z,14.73
2018-03-01T04:59:31.418Z,15.60
2018-03-01T05:01:59.092Z,15.80
2018-03-01T05:04:27.034Z,16.55
2018-03-01T05:06:54.579Z,15.48
2018-03-01T05:09:22.094Z,16.70
2018-03-01T05:11:49.599Z,16.12
2018-03-01T05:14:17.678Z,15.82
2018-03-01T05:16:45.180Z,16.55
2018-03-01T05:19:12.746Z,17.20
2018-03-01T05:21:40.250Z,15.18
2018-03-01T05:24:07.762Z,17.23
2018-03-01T05:26:35.262Z,16.40
2018-03-01T05:29:02.756Z,16.10
2018-03-01T05:31:30.267Z,16.27
2018-03-01T05:33:57.846Z,16.08
2018-03-01T05:36:25.352Z,16.80
2018-03-01T05:38:52.998Z,17.10
2018-03-01T05:41:20.528Z,16.20
2018-03-01T05:43:48.101Z,14.52
2018-03-01T05:46:15.603Z,15.00
2018-03-01T05:48:43.188Z,17.17
2018-03-01T05:51:10.725Z,15.55
2018-03-01T05:53:38.299Z,16.00
2018-03-01T05:56:05.849Z,15.45
2018-03-01T05:58:33.357Z,16.55
2018-03-01T06:01:00.874Z,15.43
2018-03-01T06:03:28.368Z,16.20
2018-03-01T06:05:55.908Z,16.65
2018-03-01T06:08:24.386Z,15.35
2018-03-01T06:10:51.940Z,16.35
2018-03-01T06:13:19.478Z,14.87
2018-03-01T06:15:46.973Z,16.73
2018-03-01T06:18:14.486Z,14.80
2018-03-01T06:20:41.982Z,14.80
2018-03-01T06:23:09.491Z,15.18
2018-03-01T06:25:37.028Z,14.63
2018-03-01T06:28:04.587Z,16.12
2018-03-01T06:30:32.132Z,15.75
2018-03-01T06:32:59.633Z,15.00
2018-03-01T06:35:27.183Z,16.27
2018-03-01T06:37:54.776Z,16.05
2018-03-01T06:40:22.308Z,16.58
2018-03-01T06:42:49.812Z,17.12
2018-03-01T06:45:17.371Z,15.98
2018-03-01T06:47:44.876Z,16.33
2018-03-01T06:50:12.383Z,16.60
2018-03-01T06:52:39.900Z,16.37
2018-03-01T06:55:07.421Z,16.70
2018-03-01T06:57:34.948Z,17.20
2018-03-01T07:00:02.445Z,16.65
2018-03-01T07:02:29.996Z,18.23
2018-03-01T07:04:57.528Z,16.15
2018-03-01T07:07:25.048Z,15.13
2018-03-01T07:09:52.597Z,15.35
2018-03-01T07:12:20.094Z,17.20
2018-03-01T07:14:47.602Z,16.25
2018-03-01T07:17:15.132Z,15.27
2018-03-01T07:19:42.653Z,18.90
2018-03-01T07:22:10.197Z,19.12
2018-03-01T07:24:37.687Z,15.73
2018-03-01T07:27:05.964Z,15.80
2018-03-01T07:29:33.623Z,17.20
2018-03-01T07:32:01.413Z,21.33
2018-03-01T07:34:28.976Z,17.23
2018-03-01T07:36:56.510Z,17.73
2018-03-01T07:39:24.023Z,16.92
2018-03-01T07:41:51.596Z,17.70
2018-03-01T07:44:19.101Z,16.40
2018-03-01T07:46:46.632Z,16.15
2018-03-01T07:49:14.150Z,17.85
2018-03-01T07:51:41.659Z,16.85
2018-03-01T07:54:09.243Z,17.48
2018-03-01T07:56:36.813Z,17.62
2018-03-01T07:59:04.331Z,16.58
2018-03-01T08:01:31.844Z,17.50
2018-03-01T08:03:59.419Z,18.17
2018-03-01T08:06:26.927Z,18.10
2018-03-01T08:08:54.436Z,17.92
2018-03-01T08:11:22.027Z,16.35
2018-03-01T08:13:49.536Z,16.25
2018-03-01T08:16:17.093Z,16.80
2018-03-01T08:18:44.608Z,18.40
2018-03-01T08:21:12.127Z,24.75
2018-03-01T08:23:39.658Z,18.10
2018-03-01T08:26:07.180Z,18.80
2018-03-01T08:28:34.664Z,18.80
2018-03-01T08:31:02.174Z,18.45
2018-03-01T08:33:29.710Z,19.50
2018-03-01T08:35:57.274Z,17.98
2018-03-01T08:38:24.790Z,17.75
2018-03-01T08:40:52.281Z,19.10
2018-03-01T08:43:19.795Z,17.75
2018-03-01T08:45:47.292Z,18.92
2018-03-01T08:48:14.821Z,17.55
2018-03-01T08:50:42.321Z,18.40
2018-03-01T08:53:09.851Z,18.17
2018-03-01T08:55:37.366Z,17.52
2018-03-01T08:58:04.874Z,18.85
2018-03-01T09:00:32.391Z,17.55
2018-03-01T09:02:59.904Z,18.48
2018-03-01T09:05:27.451Z,19.10
2018-03-01T09:07:54.977Z,19.52
2018-03-01T09:10:22.476Z,20.50
2018-03-01T09:12:49.995Z,19.30
2018-03-01T09:15:17.508Z,19.80
2018-03-01T09:17:45.083Z,18.75
2018-03-01T09:20:12.575Z,18.02
2018-03-01T09:22:40.060Z,18.65
2018-03-01T09:25:07.565Z,18.92
2018-03-01T09:27:35.086Z,19.70
2018-03-01T09:30:02.684Z,17.60
2018-03-01T09:32:30.190Z,19.20
2018-03-01T09:34:57.711Z,17.15
2018-03-01T09:37:25.232Z,18.95
2018-03-01T09:39:52.760Z,19.92
2018-03-01T09:42:20.281Z,18.75
2018-03-01T09:44:47.802Z,19.65
2018-03-01T09:47:15.313Z,19.48
2018-03-01T09:49:42.857Z,18.77
2018-03-01T09:52:10.372Z,20.10
2018-03-01T09:54:37.906Z,19.65
2018-03-01T09:57:05.428Z,19.83
2018-03-01T09:59:32.910Z,17.85
2018-03-01T10:02:00.403Z,19.37
2018-03-01T10:04:28.819Z,18.80
2018-03-01T10:06:56.369Z,19.65
2018-03-01T10:09:23.866Z,19.80
2018-03-01T10:11:51.392Z,19.35
2018-03-01T10:14:18.910Z,20.52
2018-03-01T10:16:46.463Z,20.73
2018-03-01T10:19:14.007Z,19.73
2018-03-01T10:21:41.518Z,20.48
2018-03-01T10:24:09.035Z,19.80
2018-03-01T10:26:36.541Z,19.40
2018-03-01T10:29:04.111Z,21.55
2018-03-01T10:31:31.636Z,21.35
2018-03-01T10:33:59.212Z,20.37
2018-03-01T10:36:26.743Z,19.20
2018-03-01T10:38:54.245Z,20.30
2018-03-01T10:41:21.774Z,20.62
2018-03-01T10:43:49.274Z,21.02
2018-03-01T10:46:16.838Z,21.45
2018-03-01T10:48:44.419Z,20.05
2018-03-01T10:51:11.929Z,21.62
2018-03-01T10:53:39.527Z,21.45
2018-03-01T10:56:07.050Z,22.25
2018-03-01T10:58:35.382Z,20.60
2018-03-01T11:01:02.906Z,20.75
2018-03-01T11:03:30.405Z,20.55
2018-03-01T11:05:57.975Z,20.40
2018-03-01T11:08:25.551Z,21.52
2018-03-01T11:10:53.085Z,22.80
2018-03-01T11:13:20.632Z,19.92
2018-03-01T11:15:48.151Z,20.80
2018-03-01T11:18:15.669Z,22.05
2018-03-01T11:20:43.142Z,21.90
2018-03-01T11:23:10.654Z,21.05
2018-03-01T11:25:38.212Z,19.65
2018-03-01T11:28:05.729Z,21.17
2018-03-01T11:30:33.990Z,19.98
2018-03-01T11:33:01.529Z,20.33
2018-03-01T11:35:29.030Z,19.55
2018-03-01T11:37:56.693Z,19.75
2018-03-01T11:40:24.269Z,19.73
2018-03-01T11:42:51.778Z,19.35
2018-03-01T11:45:19.316Z,18.50
2018-03-01T11:47:46.874Z,19.35
2018-03-01T11:50:14.360Z,19.77
2018-03-01T11:52:41.961Z,19.92
2018-03-01T11:55:09.513Z,19.08
2018-03-01T11:57:37.055Z,19.40
2018-03-01T12:00:04.568Z,19.40
2018-03-01T12:02:32.110Z,20.33
2018-03-01T12:04:59.657Z,21.08
2018-03-01T12:07:27.192Z,20.42
2018-03-01T12:09:54.776Z,18.80
2018-03-01T12:12:22.294Z,20.15
2018-03-01T12:14:49.810Z,21.40
2018-03-01T12:17:17.304Z,20.37
2018-03-01T12:19:44.895Z,20.10
2018-03-01T12:22:13.336Z,21.35
2018-03-01T12:24:40.878Z,20.77
2018-03-01T12:27:08.402Z,20.05
2018-03-01T12:29:35.917Z,21.35
2018-03-01T12:32:03.414Z,20.73
2018-03-01T12:34:30.917Z,21.40
2018-03-01T12:36:58.441Z,21.33
2018-03-01T12:39:25.940Z,22.13
2018-03-01T12:41:53.449Z,22.45
2018-03-01T12:44:20.981Z,21.27
2018-03-01T12:46:48.873Z,22.83
2018-03-01T12:49:16.404Z,23.77
2018-03-01T12:51:43.905Z,24.03
2018-03-01T12:54:11.410Z,24.80
2018-03-01T12:56:38.909Z,25.63
2018-03-01T12:59:06.406Z,24.30
2018-03-01T13:01:33.925Z,22.63
2018-03-01T13:04:04.050Z,24.67
2018-03-01T13:06:31.543Z,24.17
2018-03-01T13:08:59.063Z,23.80
2018-03-01T13:11:26.642Z,24.52
2018-03-01T13:13:54.151Z,24.10
2018-03-01T13:16:22.067Z,22.52
2018-03-01T13:18:49.635Z,22.70
2018-03-01T13:21:17.219Z,21.70
2018-03-01T13:23:44.825Z,22.58
2018-03-01T13:26:13.003Z,23.25
2018-03-01T13:28:40.578Z,22.05
2018-03-01T13:31:16.250Z,21.77
2018-03-01T13:36:46.408Z,21.05
2018-03-01T13:39:13.998Z,20.10
2018-03-01T13:41:42.714Z,23.33
2018-03-01T13:44:10.232Z,21.85
2018-03-01T13:46:41.087Z,22.45
2018-03-01T13:49:08.645Z,20.88
2018-03-01T13:51:36.167Z,21.50
2018-03-01T13:54:03.792Z,23.48
2018-03-01T13:56:31.776Z,22.30
2018-03-01T13:58:59.428Z,22.42
2018-03-01T14:01:28.982Z,20.90
2018-03-01T14:03:56.535Z,23.52
2018-03-01T14:09:26.126Z,22.10
2018-03-01T14:11:53.641Z,21.20
2018-03-01T14:14:21.555Z,20.58
2018-03-01T14:16:49.881Z,24.02
2018-03-01T14:19:17.412Z,22.30
2018-03-01T14:22:05.582Z,22.33
2018-03-01T14:24:33.075Z,22.85
2018-03-01T14:27:06.309Z,24.00
2018-03-01T14:32:34.628Z,21.48
2018-03-01T14:35:02.212Z,22.20
2018-03-01T14:37:29.768Z,21.35
2018-03-01T14:39:57.287Z,21.80
2018-03-01T14:42:24.826Z,21.05
2018-03-01T14:44:52.374Z,21.35
2018-03-01T14:47:19.889Z,23.60
2018-03-01T14:49:47.441Z,23.73
2018-03-01T14:52:15.641Z,24.15
2018-03-01T14:54:43.186Z,23.60
2018-03-01T14:57:10.684Z,24.02
2018-03-01T14:59:38.203Z,22.08
2018-03-01T15:02:05.909Z,23.60
2018-03-01T15:04:33.425Z,23.42
2018-03-01T15:07:00.920Z,22.95
2018-03-01T15:09:28.449Z,22.33
2018-03-01T15:11:56.331Z,22.80
2018-03-01T15:14:23.903Z,23.42
2018-03-01T15:16:51.407Z,21.65
2018-03-01T15:19:18.933Z,21.37
2018-03-01T15:21:46.453Z,23.87
2018-03-01T15:24:14.018Z,20.25
2018-03-01T15:26:41.552Z,21.98
2018-03-01T15:29:09.066Z,21.92
2018-03-01T15:31:36.598Z,21.83
2018-03-01T15:34:04.152Z,21.83
2018-03-01T15:36:31.714Z,21.90
2018-03-01T15:38:59.249Z,23.30
2018-03-01T15:41:26.748Z,21.85
2018-03-01T15:43:54.332Z,21.95
2018-03-01T15:46:21.868Z,22.75
2018-03-01T15:48:49.354Z,21.95
2018-03-01T15:51:16.864Z,22.15
2018-03-01T15:53:44.372Z,24.35
2018-03-01T15:56:11.881Z,22.58
2018-03-01T15:58:39.398Z,24.77
2018-03-01T16:01:06.904Z,23.67
2018-03-01T16:03:34.425Z,20.33
2018-03-01T16:06:01.939Z,22.45
2018-03-01T16:08:29.417Z,22.70
2018-03-01T16:10:56.932Z,21.00
2018-03-01T16:13:24.480Z,21.08
2018-03-01T16:15:52.024Z,23.30
2018-03-01T16:18:19.546Z,21.40
2018-03-01T16:20:47.144Z,22.42
2018-03-01T16:23:14.667Z,25.12
2018-03-01T16:25:42.173Z,22.75
2018-03-01T16:28:09.680Z,22.85
2018-03-01T16:30:37.211Z,22.45
2018-03-01T16:33:04.740Z,25.60
2018-03-01T16:35:32.226Z,24.60
2018-03-01T16:37:59.774Z,21.70
2018-03-01T16:40:27.264Z,23.65
2018-03-01T16:42:54.767Z,30.12
2018-03-01T16:45:22.276Z,24.50
2018-03-01T16:47:49.783Z,25.62
2018-03-01T16:50:17.284Z,22.83
2018-03-01T16:52:44.830Z,24.85
2018-03-01T16:55:12.437Z,26.35
2018-03-01T16:57:39.965Z,20.60
2018-03-01T17:00:07.462Z,21.58
2018-03-01T17:02:35.010Z,21.15
2018-03-01T17:05:02.542Z,20.55
2018-03-01T17:07:30.059Z,21.70
2018-03-01T17:09:57.603Z,19.20
2018-03-01T17:12:25.150Z,23.83
2018-03-01T17:14:52.730Z,25.42
2018-03-01T17:17:20.271Z,20.80
2018-03-01T17:19:47.820Z,23.12
2018-03-01T17:22:15.384Z,21.40
2018-03-01T17:24:42.930Z,32.60
2018-03-01T17:27:10.474Z,20.73
2018-03-01T17:29:37.996Z,21.23
2018-03-01T17:32:05.508Z,20.65
2018-03-01T17:34:33.067Z,20.83
2018-03-01T17:37:00.709Z,21.83
2018-03-01T17:39:28.286Z,19.55
2018-03-01T17:41:55.880Z,23.02
2018-03-01T17:44:23.427Z,28.12
2018-03-01T17:46:50.991Z,19.40
2018-03-01T17:49:18.563Z,20.95
2018-03-01T17:51:46.152Z,19.15
2018-03-01T17:54:13.711Z,20.30
2018-03-01T17:56:41.202Z,20.58
2018-03-01T17:59:08.704Z,20.67
2018-03-01T18:01:36.276Z,19.83
2018-03-01T18:04:03.901Z,21.70
2018-03-01T18:06:31.396Z,21.85
2018-03-01T18:08:59.908Z,21.17
2018-03-01T18:11:27.479Z,20.80
2018-03-01T18:13:57.960Z,21.02
2018-03-01T18:16:25.496Z,23.92
2018-03-01T18:18:53.031Z,24.30
2018-03-01T18:21:20.556Z,22.92
2018-03-01T18:23:48.064Z,21.73
2018-03-01T18:26:15.602Z,21.73
2018-03-01T18:28:43.112Z,21.05
2018-03-01T18:31:10.678Z,22.40
2018-03-01T18:33:39.422Z,23.08
2018-03-01T18:36:07.095Z,19.23
2018-03-01T18:38:34.678Z,21.48
2018-03-01T18:41:02.379Z,20.00
2018-03-01T18:43:29.963Z,22.10
2018-03-01T18:45:57.632Z,20.90
2018-03-01T18:48:25.212Z,22.50
2018-03-01T18:50:52.753Z,21.60
2018-03-01T18:53:20.317Z,22.40
2018-03-01T18:55:47.849Z,22.37
2018-03-01T18:58:15.359Z,22.62
2018-03-01T19:00:42.908Z,22.13
2018-03-01T19:03:10.421Z,23.38
2018-03-01T19:05:38.031Z,21.70
2018-03-01T19:08:05.620Z,21.52
2018-03-01T19:10:33.135Z,23.92
2018-03-01T19:13:00.646Z,24.05
2018-03-01T19:15:29.312Z,21.98
2018-03-01T19:17:56.890Z,21.87
2018-03-01T19:20:24.687Z,23.23
2018-03-01T19:22:52.344Z,25.25
2018-03-01T19:25:19.898Z,24.25
2018-03-01T19:27:47.424Z,28.85
2018-03-01T19:30:15.031Z,25.55
2018-03-01T19:32:42.618Z,21.30
2018-03-01T19:35:11.316Z,22.42
2018-03-01T19:37:38.864Z,21.25
2018-03-01T19:40:06.373Z,21.90
2018-03-01T19:42:34.003Z,22.75
2018-03-01T19:45:01.496Z,21.95
2018-03-01T19:47:29.019Z,23.08
2018-03-01T19:49:57.910Z,21.40
2018-03-01T19:52:25.459Z,22.00
2018-03-01T19:54:53.007Z,22.65
2018-03-01T19:57:20.553Z,21.65
2018-03-01T19:59:48.102Z,21.65
2018-03-01T20:02:15.632Z,24.77
2018-03-01T20:04:43.161Z,22.75
2018-03-01T20:07:10.721Z,23.33
2018-03-01T20:09:38.237Z,22.80
2018-03-01T20:12:05.760Z,24.05
2018-03-01T20:14:33.306Z,22.77
2018-03-01T20:17:00.885Z,22.13
2018-03-01T20:19:28.405Z,21.77
2018-03-01T20:21:55.940Z,22.15
2018-03-01T20:24:23.484Z,22.00
2018-03-01T20:26:51.014Z,23.77
2018-03-01T20:29:18.549Z,22.30
2018-03-01T20:31:46.057Z,22.92
2018-03-01T20:34:13.629Z,22.37
2018-03-01T20:36:41.173Z,21.45
2018-03-01T20:39:08.830Z,21.60
2018-03-01T20:41:36.365Z,24.73
2018-03-01T20:44:03.885Z,23.02
2018-03-01T20:46:31.418Z,22.58
2018-03-01T20:48:58.906Z,24.42
2018-03-01T20:51:26.429Z,22.65
2018-03-01T20:53:53.921Z,21.83
2018-03-01T20:56:21.423Z,24.65
2018-03-01T20:58:49.114Z,23.05
2018-03-01T21:01:16.665Z,24.12
2018-03-01T21:03:44.180Z,22.92
2018-03-01T21:06:11.749Z,24.00
2018-03-01T21:08:39.298Z,24.27
2018-03-01T21:11:06.808Z,22.80
2018-03-01T21:13:34.341Z,23.98
2018-03-01T21:16:01.863Z,25.30
2018-03-01T21:18:29.382Z,24.35
2018-03-01T21:20:56.961Z,23.30
2018-03-01T21:23:24.567Z,23.58
2018-03-01T21:25:52.074Z,20.95
2018-03-01T21:28:19.711Z,24.67
2018-03-01T21:30:47.285Z,25.75
2018-03-01T21:33:14.803Z,24.05
2018-03-01T21:35:42.364Z,25.70
2018-03-01T21:38:09.891Z,24.45
2018-03-01T21:40:37.462Z,23.45
2018-03-01T21:43:05.011Z,24.10
2018-03-01T21:45:32.557Z,26.15
2018-03-01T21:48:00.072Z,24.42
2018-03-01T21:50:27.569Z,23.80
2018-03-01T21:52:59.581Z,24.15
2018-03-01T21:55:27.175Z,25.67
2018-03-01T21:57:54.708Z,26.90
2018-03-01T22:00:22.285Z,24.75
2018-03-01T22:02:49.816Z,24.40
2018-03-01T22:05:17.328Z,23.05
2018-03-01T22:07:53.752Z,24.08
2018-03-01T22:10:21.306Z,24.30
2018-03-01T22:12:48.850Z,26.05
2018-03-01T22:15:18.227Z,25.95
2018-03-01T22:17:45.872Z,26.80
2018-03-01T22:20:13.852Z,27.73
2018-03-01T22:22:41.461Z,25.83
2018-03-01T22:25:09.034Z,23.95
2018-03-01T22:27:36.564Z,23.83
2018-03-01T22:30:04.288Z,25.42
2018-03-01T22:32:32.023Z,25.27
2018-03-01T22:35:01.590Z,25.77
2018-03-01T22:37:30.020Z,29.23
2018-03-01T22:39:57.667Z,28.92
2018-03-01T22:42:25.173Z,27.27
2018-03-01T22:44:52.758Z,26.52
2018-03-01T22:47:20.266Z,24.30
2018-03-01T22:49:47.794Z,24.20
2018-03-01T22:52:15.355Z,23.77
2018-03-01T22:54:42.868Z,25.95
2018-03-01T22:57:10.429Z,22.90
2018-03-01T22:59:37.963Z,23.55
2018-03-01T23:02:05.567Z,25.17
2018-03-01T23:04:33.102Z,23.17
2018-03-01T23:07:00.649Z,26.83
2018-03-01T23:09:28.195Z,26.20
2018-03-01T23:11:55.708Z,25.27
2018-03-01T23:14:23.237Z,26.52
2018-03-01T23:16:50.812Z,26.60
2018-03-01T23:19:18.376Z,25.70
2018-03-01T23:21:45.866Z,26.85
2018-03-01T23:24:13.369Z,25.12
2018-03-01T23:26:40.883Z,25.80
2018-03-01T23:29:08.426Z,26.35
2018-03-01T23:31:35.950Z,27.13
2018-03-01T23:34:03.477Z,25.83
2018-03-01T23:36:30.983Z,25.73
2018-03-01T23:38:58.492Z,25.08
2018-03-01T23:41:26.056Z,26.80
2018-03-01T23:43:53.592Z,27.13
2018-03-01T23:46:21.110Z,26.40
2018-03-01T23:48:48.623Z,26.15
2018-03-01T23:51:16.135Z,26.15
2018-03-01T23:53:43.715Z,27.20
2018-03-01T23:56:11.234Z,26.50
2018-03-01T23:58:38.770Z,27.08
